Terminal Aerodrome Forecast
Issued by NWS

Home | Current Version | Previous Version | Text Only | Print | Product List | Glossary On
Versions: 1 2 3 4 5 6 7 8 9 10 11 12 13 14 15
487
FTUS43 KGRB 251724
TAFAUW
TAF
KAUW 251724Z 2518/2618 18010KT P6SM VCSH BKN100
     FM252100 18011KT P6SM SCT130
     FM260100 18007KT P6SM BKN120 PROB30 2604/2608 4SM -TSRA
      OVC025CB
     FM260800 20005KT P6SM BKN030 PROB30 2608/2612 4SM -TSRA
      OVC007CB
     FM261300 22006KT P6SM OVC015=

USA.gov is the U.S. government's official web portal to all federal, state and local government web resources and services.